sensor_id;sensor_type;location;lat;lon;timestamp;pressure;altitude;pressure_sealevel;temperature
74915;BMP280;63475;45.140;-75.616;2023-04-16T00:00:29;99983.63;;;23.03
74915;BMP280;63475;45.140;-75.616;2023-04-16T00:01:30;100000.75;;;23.11
74915;BMP280;63475;45.140;-75.616;2023-04-16T00:02:31;99998.09;;;23.05
74915;BMP280;63475;45.140;-75.616;2023-04-16T00:03:32;99994.25;;;22.95
74915;BMP280;63475;45.140;-75.616;2023-04-16T00:04:32;100005.78;;;22.96
74915;BMP280;63475;45.140;-75.616;2023-04-16T00:05:33;99979.72;;;22.74
74915;BMP280;63475;45.140;-75.616;2023-04-16T00:06:34;100010.81;;;22.86
74915;BMP280;63475;45.140;-75.616;2023-04-16T00:07:35;99992.53;;;22.68
74915;BMP280;63475;45.140;-75.616;2023-04-16T00:08:37;100018.75;;;22.79
74915;BMP280;63475;45.140;-75.616;2023-04-16T00:09:38;100014.34;;;22.76
74915;BMP280;63475;45.140;-75.616;2023-04-16T00:10:39;100018.53;;;22.71
74915;BMP280;63475;45.140;-75.616;2023-04-16T00:11:40;100011.50;;;22.62
74915;BMP280;63475;45.140;-75.616;2023-04-16T00:12:41;100007.13;;;22.54
74915;BMP280;63475;45.140;-75.616;2023-04-16T00:13:42;100021.31;;;22.60
74915;BMP280;63475;45.140;-75.616;2023-04-16T00:14:43;100014.78;;;22.50
74915;BMP280;63475;45.140;-75.616;2023-04-16T00:15:44;100019.44;;;22.49
74915;BMP280;63475;45.140;-75.616;2023-04-16T00:16:45;100002.13;;;22.34
74915;BMP280;63475;45.140;-75.616;2023-04-16T00:17:46;100021.97;;;22.42
74915;BMP280;63475;45.140;-75.616;2023-04-16T00:18:47;100024.69;;;22.36
74915;BMP280;63475;45.140;-75.616;2023-04-16T00:19:48;100010.50;;;22.30
74915;BMP280;63475;45.140;-75.616;2023-04-16T00:20:49;100015.19;;;22.24
74915;BMP280;63475;45.140;-75.616;2023-04-16T00:21:50;99994.94;;;22.06
74915;BMP280;63475;45.140;-75.616;2023-04-16T00:22:51;100026.50;;;22.23
74915;BMP280;63475;45.140;-75.616;2023-04-16T00:23:52;100024.81;;;22.19
74915;BMP280;63475;45.140;-75.616;2023-04-16T00:24:53;100023.38;;;22.13
74915;BMP280;63475;45.140;-75.616;2023-04-16T00:25:54;99986.97;;;21.84
74915;BMP280;63475;45.140;-75.616;2023-04-16T00:26:56;100027.59;;;22.03
74915;BMP280;63475;45.140;-75.616;2023-04-16T00:27:57;100031.25;;;22.00
74915;BMP280;63475;45.140;-75.616;2023-04-16T00:28:58;100030.78;;;21.96
74915;BMP280;63475;45.140;-75.616;2023-04-16T00:29:59;100028.13;;;21.90
74915;BMP280;63475;45.140;-75.616;2023-04-16T00:31:00;100037.22;;;21.87
74915;BMP280;63475;45.140;-75.616;2023-04-16T00:32:01;100036.75;;;21.83
74915;BMP280;63475;45.140;-75.616;2023-04-16T00:33:02;100021.81;;;21.65
74915;BMP280;63475;45.140;-75.616;2023-04-16T00:34:04;100038.97;;;21.73
74915;BMP280;63475;45.140;-75.616;2023-04-16T00:35:05;100041.19;;;21.69
74915;BMP280;63475;45.140;-75.616;2023-04-16T00:36:06;100041.22;;;21.64
74915;BMP280;63475;45.140;-75.616;2023-04-16T00:37:07;100036.56;;;21.59
74915;BMP280;63475;45.140;-75.616;2023-04-16T00:38:08;100036.09;;;21.55
74915;BMP280;63475;45.140;-75.616;2023-04-16T00:39:09;100041.50;;;21.49
74915;BMP280;63475;45.140;-75.616;2023-04-16T00:40:10;100043.22;;;21.47
74915;BMP280;63475;45.140;-75.616;2023-04-16T00:41:11;100036.13;;;21.44
74915;BMP280;63475;45.140;-75.616;2023-04-16T00:42:12;100037.59;;;21.39
74915;BMP280;63475;45.140;-75.616;2023-04-16T00:43:23;100044.50;;;21.35
74915;BMP280;63475;45.140;-75.616;2023-04-16T00:44:24;100048.84;;;21.32
74915;BMP280;63475;45.140;-75.616;2023-04-16T00:45:26;100036.41;;;21.23
74915;BMP280;63475;45.140;-75.616;2023-04-16T00:46:27;100025.41;;;21.10
74915;BMP280;63475;45.140;-75.616;2023-04-16T00:47:28;100046.44;;;21.17
74915;BMP280;63475;45.140;-75.616;2023-04-16T00:48:29;100043.25;;;21.13
74915;BMP280;63475;45.140;-75.616;2023-04-16T00:49:32;100036.91;;;21.05
74915;BMP280;63475;45.140;-75.616;2023-04-16T00:50:33;100046.22;;;21.04
74915;BMP280;63475;45.140;-75.616;2023-04-16T00:51:34;100039.09;;;20.96
74915;BMP280;63475;45.140;-75.616;2023-04-16T00:52:36;100045.97;;;20.97
74915;BMP280;63475;45.140;-75.616;2023-04-16T00:53:38;100046.94;;;20.94
74915;BMP280;63475;45.140;-75.616;2023-04-16T00:54:39;100048.16;;;20.87
74915;BMP280;63475;45.140;-75.616;2023-04-16T00:55:40;100037.63;;;20.84
74915;BMP280;63475;45.140;-75.616;2023-04-16T00:56:41;100044.00;;;20.80
74915;BMP280;63475;45.140;-75.616;2023-04-16T00:57:42;100044.25;;;20.77
74915;BMP280;63475;45.140;-75.616;2023-04-16T00:58:43;100045.97;;;20.74
74915;BMP280;63475;45.140;-75.616;2023-04-16T00:59:45;100018.53;;;20.54
74915;BMP280;63475;45.140;-75.616;2023-04-16T01:00:46;100046.44;;;20.67
74915;BMP280;63475;45.140;-75.616;2023-04-16T01:01:47;100045.19;;;20.63
74915;BMP280;63475;45.140;-75.616;2023-04-16T01:02:48;100039.53;;;20.55
74915;BMP280;63475;45.140;-75.616;2023-04-16T01:03:49;100031.22;;;20.48
74915;BMP280;63475;45.140;-75.616;2023-04-16T01:04:50;100014.34;;;20.30
74915;BMP280;63475;45.140;-75.616;2023-04-16T01:05:51;100042.22;;;20.44
74915;BMP280;63475;45.140;-75.616;2023-04-16T01:06:52;100032.69;;;20.38
74915;BMP280;63475;45.140;-75.616;2023-04-16T01:07:57;100038.53;;;20.30
74915;BMP280;63475;45.140;-75.616;2023-04-16T01:08:59;100046.84;;;20.32
74915;BMP280;63475;45.140;-75.616;2023-04-16T01:10:00;100038.75;;;20.27
74915;BMP280;63475;45.140;-75.616;2023-04-16T01:11:01;100035.31;;;20.21
74915;BMP280;63475;45.140;-75.616;2023-04-16T01:12:02;100026.22;;;20.07
74915;BMP280;63475;45.140;-75.616;2023-04-16T01:13:03;100044.81;;;20.16
74915;BMP280;63475;45.140;-75.616;2023-04-16T01:14:05;100031.31;;;20.00
74915;BMP280;63475;45.140;-75.616;2023-04-16T01:15:06;100043.56;;;20.06
74915;BMP280;63475;45.140;-75.616;2023-04-16T01:16:09;100040.38;;;20.02
74915;BMP280;63475;45.140;-75.616;2023-04-16T01:17:10;100050.41;;;20.02
74915;BMP280;63475;45.140;-75.616;2023-04-16T01:18:19;100041.09;;;19.97
74915;BMP280;63475;45.140;-75.616;2023-04-16T01:19:20;100032.69;;;19.84
74915;BMP280;63475;45.140;-75.616;2023-04-16T01:20:21;100051.31;;;19.93
74915;BMP280;63475;45.140;-75.616;2023-04-16T01:21:22;100031.47;;;19.79
74915;BMP280;63475;45.140;-75.616;2023-04-16T01:22:23;100041.75;;;19.86
74915;BMP280;63475;45.140;-75.616;2023-04-16T01:23:24;100046.13;;;19.84
74915;BMP280;63475;45.140;-75.616;2023-04-16T01:24:25;100041.50;;;19.79
74915;BMP280;63475;45.140;-75.616;2023-04-16T01:25:26;100041.50;;;19.79
74915;BMP280;63475;45.140;-75.616;2023-04-16T01:26:27;100042.19;;;19.74
74915;BMP280;63475;45.140;-75.616;2023-04-16T01:27:28;100027.28;;;19.73
74915;BMP280;63475;45.140;-75.616;2023-04-16T01:28:29;100006.38;;;19.45
74915;BMP280;63475;45.140;-75.616;2023-04-16T01:29:30;100038.78;;;19.73
74915;BMP280;63475;45.140;-75.616;2023-04-16T01:30:31;100038.78;;;19.73
74915;BMP280;63475;45.140;-75.616;2023-04-16T01:31:31;100038.31;;;19.75
74915;BMP280;63475;45.140;-75.616;2023-04-16T01:32:32;100037.06;;;19.70
74915;BMP280;63475;45.140;-75.616;2023-04-16T01:33:33;100045.84;;;19.71
74915;BMP280;63475;45.140;-75.616;2023-04-16T01:34:34;100039.75;;;19.70
74915;BMP280;63475;45.140;-75.616;2023-04-16T01:35:35;100032.91;;;19.75
74915;BMP280;63475;45.140;-75.616;2023-04-16T01:36:37;100027.75;;;19.66
74915;BMP280;63475;45.140;-75.616;2023-04-16T01:37:38;100038.31;;;19.75
74915;BMP280;63475;45.140;-75.616;2023-04-16T01:38:39;100040.25;;;19.74
74915;BMP280;63475;45.140;-75.616;2023-04-16T01:39:39;100013.69;;;19.45
74915;BMP280;63475;45.140;-75.616;2023-04-16T01:40:40;100036.25;;;19.59
74915;BMP280;63475;45.140;-75.616;2023-04-16T01:41:41;100028.91;;;19.59
74915;BMP280;63475;45.140;-75.616;2023-04-16T01:42:43;100037.97;;;19.62
74915;BMP280;63475;45.140;-75.616;2023-04-16T01:43:44;100037.97;;;19.62
74915;BMP280;63475;45.140;-75.616;2023-04-16T01:44:46;100036.94;;;19.54
74915;BMP280;63475;45.140;-75.616;2023-04-16T01:45:47;100034.44;;;19.44
74915;BMP280;63475;45.140;-75.616;2023-04-16T01:46:48;100039.81;;;19.44
74915;BMP280;63475;45.140;-75.616;2023-04-16T01:47:49;100005.94;;;19.21
74915;BMP280;63475;45.140;-75.616;2023-04-16T01:48:50;100023.84;;;19.30
74915;BMP280;63475;45.140;-75.616;2023-04-16T01:49:54;100035.34;;;19.30
74915;BMP280;63475;45.140;-75.616;2023-04-16T01:50:55;100033.31;;;19.25
74915;BMP280;63475;45.140;-75.616;2023-04-16T01:51:56;100033.03;;;19.23
74915;BMP280;63475;45.140;-75.616;2023-04-16T01:52:57;100035.72;;;19.23
74915;BMP280;63475;45.140;-75.616;2023-04-16T01:53:58;100034.81;;;19.26
74915;BMP280;63475;45.140;-75.616;2023-04-16T01:54:59;100033.03;;;19.23
74915;BMP280;63475;45.140;-75.616;2023-04-16T01:56:00;100026.88;;;19.12
74915;BMP280;63475;45.140;-75.616;2023-04-16T01:57:00;100028.81;;;19.11
74915;BMP280;63475;45.140;-75.616;2023-04-16T01:58:02;100031.78;;;19.13
74915;BMP280;63475;45.140;-75.616;2023-04-16T01:59:03;100012.13;;;18.96
74915;BMP280;63475;45.140;-75.616;2023-04-16T02:00:05;100032.84;;;18.95
74915;BMP280;63475;45.140;-75.616;2023-04-16T02:01:08;100029.47;;;19.00
74915;BMP280;63475;45.140;-75.616;2023-04-16T02:02:11;100013.63;;;18.77
74915;BMP280;63475;45.140;-75.616;2023-04-16T02:03:12;100038.13;;;18.90
74915;BMP280;63475;45.140;-75.616;2023-04-16T02:04:13;100039.56;;;18.85
74915;BMP280;63475;45.140;-75.616;2023-04-16T02:05:14;100019.69;;;18.72
74915;BMP280;63475;45.140;-75.616;2023-04-16T02:06:15;100039.78;;;18.82
74915;BMP280;63475;45.140;-75.616;2023-04-16T02:07:16;100036.34;;;18.81
74915;BMP280;63475;45.140;-75.616;2023-04-16T02:08:17;100044.63;;;18.78
74915;BMP280;63475;45.140;-75.616;2023-04-16T02:09:18;100035.25;;;18.68
74915;BMP280;63475;45.140;-75.616;2023-04-16T02:10:19;100038.34;;;18.61
74915;BMP280;63475;45.140;-75.616;2023-04-16T02:11:20;100048.94;;;18.70
74915;BMP280;63475;45.140;-75.616;2023-04-16T02:12:21;100043.03;;;18.66
74915;BMP280;63475;45.140;-75.616;2023-04-16T02:13:22;100043.47;;;18.59
74915;BMP280;63475;45.140;-75.616;2023-04-16T02:14:25;100039.84;;;18.62
74915;BMP280;63475;45.140;-75.616;2023-04-16T02:15:26;100040.69;;;18.53
74915;BMP280;63475;45.140;-75.616;2023-04-16T02:16:27;100029.88;;;18.42
74915;BMP280;63475;45.140;-75.616;2023-04-16T02:17:28;100043.84;;;18.51
74915;BMP280;63475;45.140;-75.616;2023-04-16T02:18:29;100043.00;;;18.40
74915;BMP280;63475;45.140;-75.616;2023-04-16T02:19:30;100008.16;;;18.20
74915;BMP280;63475;45.140;-75.616;2023-04-16T02:20:31;100030.72;;;18.33
74915;BMP280;63475;45.140;-75.616;2023-04-16T02:21:32;100038.78;;;18.33
74915;BMP280;63475;45.140;-75.616;2023-04-16T02:22:33;100037.31;;;18.32
74915;BMP280;63475;45.140;-75.616;2023-04-16T02:23:34;100031.44;;;18.28
74915;BMP280;63475;45.140;-75.616;2023-04-16T02:24:35;100025.22;;;18.22
74915;BMP280;63475;45.140;-75.616;2023-04-16T02:25:39;100021.63;;;18.05
74915;BMP280;63475;45.140;-75.616;2023-04-16T02:26:40;100049.34;;;18.22
74915;BMP280;63475;45.140;-75.616;2023-04-16T02:27:41;100042.41;;;18.10
74915;BMP280;63475;45.140;-75.616;2023-04-16T02:28:42;100047.84;;;18.16
74915;BMP280;63475;45.140;-75.616;2023-04-16T02:29:43;100025.72;;;18.00
74915;BMP280;63475;45.140;-75.616;2023-04-16T02:30:44;100053.50;;;18.03
74915;BMP280;63475;45.140;-75.616;2023-04-16T02:31:45;100050.81;;;18.03
74915;BMP280;63475;45.140;-75.616;2023-04-16T02:32:46;100050.38;;;18.04
74915;BMP280;63475;45.140;-75.616;2023-04-16T02:33:49;100049.38;;;18.02
74915;BMP280;63475;45.140;-75.616;2023-04-16T02:34:50;100051.50;;;17.98
74915;BMP280;63475;45.140;-75.616;2023-04-16T02:35:51;100049.00;;;17.94
74915;BMP280;63475;45.140;-75.616;2023-04-16T02:36:52;100022.63;;;17.73
74915;BMP280;63475;45.140;-75.616;2023-04-16T02:37:54;100044.34;;;17.89
74915;BMP280;63475;45.140;-75.616;2023-04-16T02:38:55;100048.97;;;17.89
74915;BMP280;63475;45.140;-75.616;2023-04-16T02:39:56;100052.53;;;17.86
74915;BMP280;63475;45.140;-75.616;2023-04-16T02:40:57;100022.84;;;17.69
74915;BMP280;63475;45.140;-75.616;2023-04-16T02:41:58;100046.16;;;17.83
74915;BMP280;63475;45.140;-75.616;2023-04-16T02:43:02;100048.09;;;17.83
74915;BMP280;63475;45.140;-75.616;2023-04-16T02:44:03;100043.94;;;17.82
74915;BMP280;63475;45.140;-75.616;2023-04-16T02:45:04;100044.59;;;17.77
74915;BMP280;63475;45.140;-75.616;2023-04-16T02:46:05;100049.72;;;17.75
74915;BMP280;63475;45.140;-75.616;2023-04-16T02:47:06;100044.81;;;17.73
74915;BMP280;63475;45.140;-75.616;2023-04-16T02:48:07;100044.06;;;17.73
74915;BMP280;63475;45.140;-75.616;2023-04-16T02:49:09;100049.16;;;17.70
74915;BMP280;63475;45.140;-75.616;2023-04-16T02:50:10;100019.91;;;17.52
74915;BMP280;63475;45.140;-75.616;2023-04-16T02:51:11;100051.03;;;17.64
74915;BMP280;63475;45.140;-75.616;2023-04-16T02:52:12;100037.63;;;17.64
74915;BMP280;63475;45.140;-75.616;2023-04-16T02:53:13;100045.75;;;17.70
74915;BMP280;63475;45.140;-75.616;2023-04-16T02:54:14;100034.50;;;17.66
74915;BMP280;63475;45.140;-75.616;2023-04-16T02:55:15;100043.94;;;17.61
74915;BMP280;63475;45.140;-75.616;2023-04-16T02:56:16;100035.34;;;17.57
74915;BMP280;63475;45.140;-75.616;2023-04-16T02:57:16;100031.44;;;17.58
74915;BMP280;63475;45.140;-75.616;2023-04-16T02:58:18;100033.59;;;17.54
74915;BMP280;63475;45.140;-75.616;2023-04-16T02:59:19;100011.25;;;17.43
74915;BMP280;63475;45.140;-75.616;2023-04-16T03:00:20;99996.22;;;17.31
74915;BMP280;63475;45.140;-75.616;2023-04-16T03:01:22;99995.22;;;17.28
74915;BMP280;63475;45.140;-75.616;2023-04-16T03:02:23;99996.94;;;17.31
74915;BMP280;63475;45.140;-75.616;2023-04-16T03:03:24;100019.06;;;17.46
74915;BMP280;63475;45.140;-75.616;2023-04-16T03:04:25;100023.69;;;17.46
74915;BMP280;63475;45.140;-75.616;2023-04-16T03:05:25;100020.28;;;17.45
74915;BMP280;63475;45.140;-75.616;2023-04-16T03:06:26;100016.16;;;17.44
74915;BMP280;63475;45.140;-75.616;2023-04-16T03:07:28;100024.34;;;17.41
74915;BMP280;63475;45.140;-75.616;2023-04-16T03:08:29;100021.66;;;17.41
74915;BMP280;63475;45.140;-75.616;2023-04-16T03:09:29;100019.47;;;17.39
74915;BMP280;63475;45.140;-75.616;2023-04-16T03:10:31;99984.78;;;17.15
74915;BMP280;63475;45.140;-75.616;2023-04-16T03:11:32;100006.47;;;17.32
74915;BMP280;63475;45.140;-75.616;2023-04-16T03:12:33;99993.06;;;17.17
74915;BMP280;63475;45.140;-75.616;2023-04-16T03:13:34;100013.00;;;17.31
74915;BMP280;63475;45.140;-75.616;2023-04-16T03:14:35;100001.94;;;17.23
74915;BMP280;63475;45.140;-75.616;2023-04-16T03:15:36;100006.66;;;17.28
74915;BMP280;63475;45.140;-75.616;2023-04-16T03:16:37;100002.50;;;17.27
74915;BMP280;63475;45.140;-75.616;2023-04-16T03:17:38;99989.19;;;17.18
74915;BMP280;63475;45.140;-75.616;2023-04-16T03:18:39;99972.69;;;17.05
74915;BMP280;63475;45.140;-75.616;2023-04-16T03:19:40;100002.97;;;17.26
74915;BMP280;63475;45.140;-75.616;2023-04-16T03:20:41;99998.81;;;17.25
74915;BMP280;63475;45.140;-75.616;2023-04-16T03:21:42;99993.47;;;17.25
74915;BMP280;63475;45.140;-75.616;2023-04-16T03:22:43;99989.75;;;17.22
74915;BMP280;63475;45.140;-75.616;2023-04-16T03:23:44;99991.44;;;17.20
74915;BMP280;63475;45.140;-75.616;2023-04-16T03:24:45;99972.13;;;17.16
74915;BMP280;63475;45.140;-75.616;2023-04-16T03:25:46;99976.38;;;17.08
74915;BMP280;63475;45.140;-75.616;2023-04-16T03:26:47;99986.34;;;17.22
74915;BMP280;63475;45.140;-75.616;2023-04-16T03:27:48;99985.59;;;17.21
74915;BMP280;63475;45.140;-75.616;2023-04-16T03:28:49;99979.53;;;17.21
74915;BMP280;63475;45.140;-75.616;2023-04-16T03:29:50;99981.47;;;17.20
74915;BMP280;63475;45.140;-75.616;2023-04-16T03:30:51;99981.91;;;17.19
74915;BMP280;63475;45.140;-75.616;2023-04-16T03:31:53;99985.78;;;17.18
74915;BMP280;63475;45.140;-75.616;2023-04-16T03:32:54;99975.06;;;17.18
74915;BMP280;63475;45.140;-75.616;2023-04-16T03:33:55;99985.50;;;17.16
74915;BMP280;63475;45.140;-75.616;2023-04-16T03:34:56;99982.84;;;17.16
74915;BMP280;63475;45.140;-75.616;2023-04-16T03:35:57;99979.41;;;17.15
74915;BMP280;63475;45.140;-75.616;2023-04-16T03:36:58;99981.06;;;17.13
74915;BMP280;63475;45.140;-75.616;2023-04-16T03:37:59;99979.78;;;17.08
74915;BMP280;63475;45.140;-75.616;2023-04-16T03:39:00;99987.91;;;17.14
74915;BMP280;63475;45.140;-75.616;2023-04-16T03:40:01;99986.41;;;17.13
74915;BMP280;63475;45.140;-75.616;2023-04-16T03:41:03;99984.97;;;17.12
74915;BMP280;63475;45.140;-75.616;2023-04-16T03:42:04;99973.16;;;17.04
74915;BMP280;63475;45.140;-75.616;2023-04-16T03:43:05;99978.03;;;17.05
74915;BMP280;63475;45.140;-75.616;2023-04-16T03:44:06;99983.69;;;17.07
74915;BMP280;63475;45.140;-75.616;2023-04-16T03:45:07;99979.97;;;17.05
74915;BMP280;63475;45.140;-75.616;2023-04-16T03:46:08;99977.03;;;17.03
74915;BMP280;63475;45.140;-75.616;2023-04-16T03:47:10;99966.91;;;16.92
74915;BMP280;63475;45.140;-75.616;2023-04-16T03:48:10;99973.25;;;16.95
74915;BMP280;63475;45.140;-75.616;2023-04-16T03:49:11;99967.91;;;16.95
74915;BMP280;63475;45.140;-75.616;2023-04-16T03:50:12;99961.25;;;16.90
74915;BMP280;63475;45.140;-75.616;2023-04-16T03:51:13;99963.81;;;16.84
74915;BMP280;63475;45.140;-75.616;2023-04-16T03:52:15;99974.81;;;16.87
74915;BMP280;63475;45.140;-75.616;2023-04-16T03:53:16;99965.31;;;16.85
74915;BMP280;63475;45.140;-75.616;2023-04-16T03:54:17;99937.44;;;16.63
74915;BMP280;63475;45.140;-75.616;2023-04-16T03:55:18;99963.75;;;16.79
74915;BMP280;63475;45.140;-75.616;2023-04-16T03:56:19;99960.03;;;16.76
74915;BMP280;63475;45.140;-75.616;2023-04-16T03:57:20;99946.75;;;16.67
74915;BMP280;63475;45.140;-75.616;2023-04-16T03:58:21;99953.84;;;16.70
74915;BMP280;63475;45.140;-75.616;2023-04-16T03:59:22;99949.88;;;16.66
74915;BMP280;63475;45.140;-75.616;2023-04-16T04:00:22;99962.53;;;16.65
74915;BMP280;63475;45.140;-75.616;2023-04-16T04:01:23;99935.84;;;16.56
74915;BMP280;63475;45.140;-75.616;2023-04-16T04:02:24;99955.88;;;16.61
74915;BMP280;63475;45.140;-75.616;2023-04-16T04:03:25;99953.38;;;16.57
74915;BMP280;63475;45.140;-75.616;2023-04-16T04:04:26;99950.59;;;16.52
74915;BMP280;63475;45.140;-75.616;2023-04-16T04:05:27;99950.16;;;16.53
74915;BMP280;63475;45.140;-75.616;2023-04-16T04:06:28;99940.81;;;16.49
74915;BMP280;63475;45.140;-75.616;2023-04-16T04:07:29;99943.50;;;16.49
74915;BMP280;63475;45.140;-75.616;2023-04-16T04:08:30;99935.84;;;16.41
74915;BMP280;63475;45.140;-75.616;2023-04-16T04:09:31;99940.91;;;16.39
74915;BMP280;63475;45.140;-75.616;2023-04-16T04:10:36;99921.09;;;16.31
74915;BMP280;63475;45.140;-75.616;2023-04-16T04:11:37;99905.59;;;16.21
74915;BMP280;63475;45.140;-75.616;2023-04-16T04:12:38;99927.44;;;16.34
74915;BMP280;63475;45.140;-75.616;2023-04-16T04:13:39;99914.72;;;16.29
74915;BMP280;63475;45.140;-75.616;2023-04-16T04:14:40;99929.91;;;16.37
74915;BMP280;63475;45.140;-75.616;2023-04-16T04:15:41;99914.16;;;16.25
74915;BMP280;63475;45.140;-75.616;2023-04-16T04:16:42;99919.88;;;16.32
74915;BMP280;63475;45.140;-75.616;2023-04-16T04:17:43;99919.59;;;16.30
74915;BMP280;63475;45.140;-75.616;2023-04-16T04:18:44;99918.88;;;16.30
74915;BMP280;63475;45.140;-75.616;2023-04-16T04:19:45;99902.91;;;16.21
74915;BMP280;63475;45.140;-75.616;2023-04-16T04:20:46;99915.16;;;16.27
74915;BMP280;63475;45.140;-75.616;2023-04-16T04:21:46;99895.06;;;16.17
74915;BMP280;63475;45.140;-75.616;2023-04-16T04:22:48;99909.25;;;16.23
74915;BMP280;63475;45.140;-75.616;2023-04-16T04:23:49;99900.97;;;16.21
74915;BMP280;63475;45.140;-75.616;2023-04-16T04:24:50;99879.91;;;16.14
74915;BMP280;63475;45.140;-75.616;2023-04-16T04:25:51;99899.94;;;16.19
74915;BMP280;63475;45.140;-75.616;2023-04-16T04:26:52;99887.06;;;16.17
74915;BMP280;63475;45.140;-75.616;2023-04-16T04:27:53;99857.22;;;15.95
74915;BMP280;63475;45.140;-75.616;2023-04-16T04:28:54;99884.84;;;16.16
74915;BMP280;63475;45.140;-75.616;2023-04-16T04:29:55;99885.75;;;16.13
74915;BMP280;63475;45.140;-75.616;2023-04-16T04:30:57;99855.00;;;15.93
74915;BMP280;63475;45.140;-75.616;2023-04-16T04:31:58;99884.25;;;16.12
74915;BMP280;63475;45.140;-75.616;2023-04-16T04:32:59;99888.13;;;16.11
74915;BMP280;63475;45.140;-75.616;2023-04-16T04:34:00;99891.25;;;16.09
74915;BMP280;63475;45.140;-75.616;2023-04-16T04:35:01;99890.25;;;16.07
74915;BMP280;63475;45.140;-75.616;2023-04-16T04:36:03;99871.50;;;15.92
74915;BMP280;63475;45.140;-75.616;2023-04-16T04:37:04;99885.78;;;16.03
74915;BMP280;63475;45.140;-75.616;2023-04-16T04:38:05;99888.94;;;16.02
74915;BMP280;63475;45.140;-75.616;2023-04-16T04:39:06;99887.78;;;15.94
74915;BMP280;63475;45.140;-75.616;2023-04-16T04:40:07;99882.56;;;15.99
74915;BMP280;63475;45.140;-75.616;2023-04-16T04:41:08;99898.31;;;15.97
74915;BMP280;63475;45.140;-75.616;2023-04-16T04:42:09;99892.69;;;15.95
74915;BMP280;63475;45.140;-75.616;2023-04-16T04:43:10;99884.38;;;15.93
74915;BMP280;63475;45.140;-75.616;2023-04-16T04:44:11;99887.06;;;15.93
74915;BMP280;63475;45.140;-75.616;2023-04-16T04:45:12;99883.66;;;15.93
74915;BMP280;63475;45.140;-75.616;2023-04-16T04:46:13;99878.03;;;15.91
74915;BMP280;63475;45.140;-75.616;2023-04-16T04:47:14;99864.16;;;15.78
74915;BMP280;63475;45.140;-75.616;2023-04-16T04:48:16;99869.50;;;15.78
74915;BMP280;63475;45.140;-75.616;2023-04-16T04:49:17;99884.75;;;15.86
74915;BMP280;63475;45.140;-75.616;2023-04-16T04:50:18;99857.13;;;15.66
74915;BMP280;63475;45.140;-75.616;2023-04-16T04:51:19;99881.53;;;15.82
74915;BMP280;63475;45.140;-75.616;2023-04-16T04:52:20;99883.13;;;15.80
74915;BMP280;63475;45.140;-75.616;2023-04-16T04:53:21;99892.31;;;15.79
74915;BMP280;63475;45.140;-75.616;2023-04-16T04:54:22;99889.38;;;15.77
74915;BMP280;63475;45.140;-75.616;2023-04-16T04:55:23;99887.91;;;15.76
74915;BMP280;63475;45.140;-75.616;2023-04-16T04:56:24;99890.28;;;15.74
74915;BMP280;63475;45.140;-75.616;2023-04-16T04:57:25;99874.06;;;15.63
74915;BMP280;63475;45.140;-75.616;2023-04-16T04:58:26;99884.56;;;15.66
74915;BMP280;63475;45.140;-75.616;2023-04-16T04:59:27;99887.97;;;15.67
74915;BMP280;63475;45.140;-75.616;2023-04-16T05:00:28;99885.47;;;15.63
74915;BMP280;63475;45.140;-75.616;2023-04-16T05:01:29;99887.13;;;15.60
74915;BMP280;63475;45.140;-75.616;2023-04-16T05:02:29;99884.91;;;15.59
74915;BMP280;63475;45.140;-75.616;2023-04-16T05:03:31;99873.09;;;15.51
74915;BMP280;63475;45.140;-75.616;2023-04-16T05:04:31;99875.47;;;15.49
74915;BMP280;63475;45.140;-75.616;2023-04-16T05:05:32;99874.31;;;15.41
74915;BMP280;63475;45.140;-75.616;2023-04-16T05:06:33;99886.63;;;15.47
74915;BMP280;63475;45.140;-75.616;2023-04-16T05:07:34;99880.53;;;15.47
74915;BMP280;63475;45.140;-75.616;2023-04-16T05:08:35;99878.28;;;15.45
74915;BMP280;63475;45.140;-75.616;2023-04-16T05:09:36;99886.00;;;15.43
74915;BMP280;63475;45.140;-75.616;2023-04-16T05:10:37;99856.19;;;15.21
74915;BMP280;63475;45.140;-75.616;2023-04-16T05:11:39;99878.59;;;15.38
74915;BMP280;63475;45.140;-75.616;2023-04-16T05:12:40;99883.69;;;15.36
74915;BMP280;63475;45.140;-75.616;2023-04-16T05:13:41;99870.81;;;15.26
74915;BMP280;63475;45.140;-75.616;2023-04-16T05:14:42;99874.38;;;15.32
74915;BMP280;63475;45.140;-75.616;2023-04-16T05:15:43;99873.63;;;15.31
74915;BMP280;63475;45.140;-75.616;2023-04-16T05:16:45;99857.25;;;15.14
74915;BMP280;63475;45.140;-75.616;2023-04-16T05:17:46;99870.38;;;15.27
74915;BMP280;63475;45.140;-75.616;2023-04-16T05:18:47;99873.50;;;15.26
74915;BMP280;63475;45.140;-75.616;2023-04-16T05:19:47;99861.66;;;15.17
74915;BMP280;63475;45.140;-75.616;2023-04-16T05:20:48;99872.47;;;15.23
74915;BMP280;63475;45.140;-75.616;2023-04-16T05:21:49;99875.59;;;15.22
74915;BMP280;63475;45.140;-75.616;2023-04-16T05:22:50;99844.81;;;15.02
74915;BMP280;63475;45.140;-75.616;2023-04-16T05:23:52;99874.28;;;15.17
74915;BMP280;63475;45.140;-75.616;2023-04-16T05:24:52;99875.91;;;15.14
74915;BMP280;63475;45.140;-75.616;2023-04-16T05:25:53;99880.22;;;15.12
74915;BMP280;63475;45.140;-75.616;2023-04-16T05:26:55;99866.63;;;15.01
74915;BMP280;63475;45.140;-75.616;2023-04-16T05:27:56;99879.59;;;15.08
74915;BMP280;63475;45.140;-75.616;2023-04-16T05:28:57;99885.84;;;15.05
74915;BMP280;63475;45.140;-75.616;2023-04-16T05:29:59;99889.53;;;15.07
74915;BMP280;63475;45.140;-75.616;2023-04-16T05:31:01;99887.34;;;15.06
74915;BMP280;63475;45.140;-75.616;2023-04-16T05:32:02;99898.16;;;15.02
74915;BMP280;63475;45.140;-75.616;2023-04-16T05:33:03;99888.97;;;15.03
74915;BMP280;63475;45.140;-75.616;2023-04-16T05:34:04;99881.75;;;14.95
74915;BMP280;63475;45.140;-75.616;2023-04-16T05:35:05;99871.38;;;14.88
74915;BMP280;63475;45.140;-75.616;2023-04-16T05:36:06;99891.06;;;14.99
74915;BMP280;63475;45.140;-75.616;2023-04-16T05:37:07;99892.25;;;14.98
74915;BMP280;63475;45.140;-75.616;2023-04-16T05:38:08;99892.41;;;14.95
74915;BMP280;63475;45.140;-75.616;2023-04-16T05:39:09;99895.81;;;14.95
74915;BMP280;63475;45.140;-75.616;2023-04-16T05:40:12;99887.53;;;14.93